Airfield :
LOGIN :

Register | Disclaimer

   EN    FR    IT 

 










Legend :    VFR   Marginal VFR   IFR   Intensive IFR   Very Intensive IFR
Visi :
Ceiling :
>= 8 km
>= 3000ft
5 to 8 km
1000 to 3000 ft
1500m to 5 km
500 to 1000 ft
800 to 1500m
200 to 500 ft
< 800m
< 200 ft
Symbols :   Thunderstorms  Fog  Heavy snow  Heavy precipitations  Wind > 20 kt
SIGMETs :     Misc.  Thunderstorms  Icing  Turbulence  Mountain Waves  Volcanic Ashes






- Airport Elevation : 885 ft
- IATA code : BAS


LFSB - Bale-Mulhouse

CURRENT METAR :
  • 280500Z AUTO 31009KT 7000 FEW009 BKN047 05/04 Q1018 TEMPO 0800 FG OVC002

EXPIRED METARs :
  • 280430Z AUTO 31007KT 7000 FEW010 BKN048 05/04 Q1018 TEMPO 0800 FG OVC002
  • 280400Z AUTO 32008KT 7000 FEW010 BKN048 05/04 Q1018 TEMPO 0800 FG OVC002
  • 280330Z AUTO 32009KT 7000 BKN049 05/04 Q1017 TEMPO 0800 FG OVC002
  • 280300Z AUTO 33007KT 7000 BKN048 05/04 Q1017 TEMPO 0800 FG OVC002
  • 280230Z AUTO 34007KT 7000 BKN049 05/04 Q1017 TEMPO 0800 FG OVC002
  • 280200Z AUTO 33007KT 7000 BKN049 06/04 Q1016 TEMPO 0800 FG OVC002
  • 280130Z AUTO 31009KT 7000 BKN050 06/05 Q1016 TEMPO 0800 FG OVC002
  • 280100Z AUTO 33010KT 8000 OVC050 07/05 Q1016 TEMPO 0800 FG OVC002
  • 280030Z AUTO 34009KT 9000 OVC049 07/05 Q1016 TEMPO 0800 FG OVC002

TAF TAF LFSB
Valid from the 28 at 00:00 until the 29 at 00:00 UTC


272300Z 2800/2824 34005KT 8000 BKN045
TEMPO 2800/2810 2500 BR BKN005
PROB30
TEMPO 2801/2808 0800 FG OVC002
TEMPO 2810/2812 BKN010
BECMG 2822/2824 VRB03KT
PROB30
TEMPO 2822/2824 4000 BR BKN013
Met : +33 3 89 90 31 11



MET'MAP, your aeronautical weather chart ! - Copyright ORBIFLY December 2007 - Disclaimer

ORBIFLY MET'MAP TEAM :

Programming & Development : Alexandra Zaïnal
Original concept : Baudouin d'Aumeries
Technical & hardware support : Manuel Goepfert
Assistance : Marc-Olivier Méhu




SOURCES & CREDITS :

   NOAA